sensor_id;sensor_type;location;lat;lon;timestamp;pressure;altitude;pressure_sealevel;temperature;humidity
13765;BME280;6953;48.810;9.204;2024-03-23T00:54:31;98014.31;;;10.83;93.83
13765;BME280;6953;48.810;9.204;2024-03-23T00:56:56;97994.84;;;10.73;94.37
13765;BME280;6953;48.810;9.204;2024-03-23T00:59:21;97973.28;;;10.56;95.05
13765;BME280;6953;48.810;9.204;2024-03-23T01:01:52;97709.59;;;8.94;95.19
13765;BME280;6953;48.810;9.204;2024-03-23T01:04:17;97969.56;;;10.46;95.07
13765;BME280;6953;48.810;9.204;2024-03-23T01:06:42;97944.88;;;10.22;95.32
13765;BME280;6953;48.810;9.204;2024-03-23T01:09:07;97908.22;;;10.08;96.20
13765;BME280;6953;48.810;9.204;2024-03-23T01:11:35;97956.81;;;10.54;95.63
13765;BME280;6953;48.810;9.204;2024-03-23T01:14:01;97997.84;;;10.81;94.99
13765;BME280;6953;48.810;9.204;2024-03-23T01:16:26;97954.09;;;10.94;94.42
13765;BME280;6953;48.810;9.204;2024-03-23T01:18:51;97973.28;;;11.21;93.60
13765;BME280;6953;48.810;9.204;2024-03-23T01:21:16;97964.06;;;11.28;93.13
13765;BME280;6953;48.810;9.204;2024-03-23T01:23:42;97672.22;;;9.58;93.69
13765;BME280;6953;48.810;9.204;2024-03-23T01:26:07;97880.34;;;10.72;94.20
13765;BME280;6953;48.810;9.204;2024-03-23T01:28:33;97635.78;;;9.29;94.25
13765;BME280;6953;48.810;9.204;2024-03-23T01:30:58;97938.81;;;11.26;94.21
13765;BME280;6953;48.810;9.204;2024-03-23T01:33:23;97986.13;;;11.38;93.74
13765;BME280;6953;48.810;9.204;2024-03-23T01:35:48;97866.25;;;11.12;93.71
13765;BME280;6953;48.810;9.204;2024-03-23T01:38:14;97726.53;;;10.46;92.56
13765;BME280;6953;48.810;9.204;2024-03-23T01:40:39;97902.66;;;11.55;92.33
13765;BME280;6953;48.810;9.204;2024-03-23T01:43:07;97571.59;;;9.62;91.98
13765;BME280;6953;48.810;9.204;2024-03-23T01:45:35;97652.16;;;10.10;92.02
13765;BME280;6953;48.810;9.204;2024-03-23T01:48:01;97837.69;;;11.20;92.65
13765;BME280;6953;48.810;9.204;2024-03-23T01:50:28;97888.00;;;11.51;92.58
13765;BME280;6953;48.810;9.204;2024-03-23T01:52:53;97903.88;;;11.62;92.81
13765;BME280;6953;48.810;9.204;2024-03-23T01:55:19;97904.75;;;11.63;92.76
13765;BME280;6953;48.810;9.204;2024-03-23T01:57:45;97693.06;;;10.50;92.36
13765;BME280;6953;48.810;9.204;2024-03-23T02:00:10;97876.97;;;11.84;91.68
13765;BME280;6953;48.810;9.204;2024-03-23T02:02:46;97907.50;;;12.10;90.20
13765;BME280;6953;48.810;9.204;2024-03-23T02:05:12;97893.41;;;12.11;90.15
13765;BME280;6953;48.810;9.204;2024-03-23T02:07:39;97876.25;;;12.05;89.50
13765;BME280;6953;48.810;9.204;2024-03-23T02:10:06;97693.44;;;11.19;88.37
13765;BME280;6953;48.810;9.204;2024-03-23T02:12:31;97791.97;;;11.96;86.87
13765;BME280;6953;48.810;9.204;2024-03-23T02:14:57;97613.47;;;10.99;85.80
13765;BME280;6953;48.810;9.204;2024-03-23T02:17:22;97879.00;;;12.63;85.33
13765;BME280;6953;48.810;9.204;2024-03-23T02:19:48;97905.47;;;12.72;84.65
13765;BME280;6953;48.810;9.204;2024-03-23T02:22:14;97878.81;;;12.77;84.15
13765;BME280;6953;48.810;9.204;2024-03-23T02:24:41;97867.09;;;12.81;84.27
13765;BME280;6953;48.810;9.204;2024-03-23T02:27:06;97859.94;;;12.83;84.24
13765;BME280;6953;48.810;9.204;2024-03-23T02:29:31;97858.13;;;12.83;83.97
13765;BME280;6953;48.810;9.204;2024-03-23T02:31:56;97620.44;;;11.47;83.58
13765;BME280;6953;48.810;9.204;2024-03-23T02:34:24;97856.53;;;12.93;83.45
13765;BME280;6953;48.810;9.204;2024-03-23T02:36:49;97860.13;;;12.92;83.48
13765;BME280;6953;48.810;9.204;2024-03-23T02:39:14;97852.41;;;12.89;83.15
13765;BME280;6953;48.810;9.204;2024-03-23T02:41:40;97857.56;;;12.91;83.11
13765;BME280;6953;48.810;9.204;2024-03-23T02:44:05;97856.41;;;12.95;83.20
13765;BME280;6953;48.810;9.204;2024-03-23T02:46:30;97747.69;;;12.37;82.46
13765;BME280;6953;48.810;9.204;2024-03-23T02:48:56;97582.09;;;11.44;82.98
13765;BME280;6953;48.810;9.204;2024-03-23T02:51:21;97843.59;;;13.01;82.73
13765;BME280;6953;48.810;9.204;2024-03-23T02:53:47;97826.34;;;12.97;82.49
13765;BME280;6953;48.810;9.204;2024-03-23T02:56:12;97584.06;;;11.53;82.35
13765;BME280;6953;48.810;9.204;2024-03-23T02:58:41;97778.41;;;12.70;82.27
13765;BME280;6953;48.810;9.204;2024-03-23T03:01:06;97561.03;;;11.57;81.44
13765;BME280;6953;48.810;9.204;2024-03-23T03:03:31;97834.66;;;13.15;81.98
13765;BME280;6953;48.810;9.204;2024-03-23T03:05:57;97837.75;;;13.09;82.29
13765;BME280;6953;48.810;9.204;2024-03-23T03:08:23;97824.72;;;13.07;82.60
13765;BME280;6953;48.810;9.204;2024-03-23T03:10:48;97852.81;;;13.07;82.74
13765;BME280;6953;48.810;9.204;2024-03-23T03:13:13;97825.53;;;12.97;82.36
13765;BME280;6953;48.810;9.204;2024-03-23T03:15:43;97842.94;;;12.87;83.39
13765;BME280;6953;48.810;9.204;2024-03-23T03:18:08;97821.63;;;12.79;84.02
13765;BME280;6953;48.810;9.204;2024-03-23T03:20:33;97830.75;;;12.51;83.92
13765;BME280;6953;48.810;9.204;2024-03-23T03:22:59;97587.13;;;11.24;84.74
13765;BME280;6953;48.810;9.204;2024-03-23T03:25:25;97824.91;;;12.59;85.14
13765;BME280;6953;48.810;9.204;2024-03-23T03:27:50;97820.31;;;12.50;85.65
13765;BME280;6953;48.810;9.204;2024-03-23T03:30:15;97528.38;;;10.67;85.48
13765;BME280;6953;48.810;9.204;2024-03-23T03:32:41;97548.16;;;10.71;86.32
13765;BME280;6953;48.810;9.204;2024-03-23T03:35:06;97836.13;;;12.27;86.86
13765;BME280;6953;48.810;9.204;2024-03-23T03:37:32;97796.84;;;12.13;86.93
13765;BME280;6953;48.810;9.204;2024-03-23T03:39:57;97823.31;;;12.22;87.81
13765;BME280;6953;48.810;9.204;2024-03-23T03:42:22;97769.81;;;11.87;87.37
13765;BME280;6953;48.810;9.204;2024-03-23T03:44:47;97812.13;;;12.08;87.84
13765;BME280;6953;48.810;9.204;2024-03-23T03:47:13;97516.22;;;10.54;87.86
13765;BME280;6953;48.810;9.204;2024-03-23T03:49:38;97796.50;;;12.17;88.40
13765;BME280;6953;48.810;9.204;2024-03-23T03:52:03;97796.50;;;12.17;89.23
13765;BME280;6953;48.810;9.204;2024-03-23T03:54:29;97721.78;;;11.85;88.99
13765;BME280;6953;48.810;9.204;2024-03-23T03:56:54;97497.88;;;10.77;88.38
13765;BME280;6953;48.810;9.204;2024-03-23T03:59:19;97749.34;;;12.27;88.33
13765;BME280;6953;48.810;9.204;2024-03-23T04:01:45;97754.63;;;12.38;88.62
13765;BME280;6953;48.810;9.204;2024-03-23T04:04:11;97712.16;;;12.20;88.48
13765;BME280;6953;48.810;9.204;2024-03-23T04:06:36;97511.63;;;11.04;88.43
13765;BME280;6953;48.810;9.204;2024-03-23T04:09:02;97531.50;;;11.19;88.55
13765;BME280;6953;48.810;9.204;2024-03-23T04:11:27;97516.69;;;11.18;88.41
13765;BME280;6953;48.810;9.204;2024-03-23T04:13:52;97724.28;;;12.44;88.69
13765;BME280;6953;48.810;9.204;2024-03-23T04:16:34;97741.16;;;12.53;88.29
13765;BME280;6953;48.810;9.204;2024-03-23T04:18:59;97633.72;;;12.14;88.13
13765;BME280;6953;48.810;9.204;2024-03-23T04:21:25;97734.63;;;12.69;87.49
13765;BME280;6953;48.810;9.204;2024-03-23T04:23:50;97712.41;;;12.84;87.54
13765;BME280;6953;48.810;9.204;2024-03-23T04:26:15;97621.69;;;12.55;86.59
13765;BME280;6953;48.810;9.204;2024-03-23T04:28:41;97610.69;;;12.61;85.55
13765;BME280;6953;48.810;9.204;2024-03-23T04:31:07;97744.28;;;13.25;85.05
13765;BME280;6953;48.810;9.204;2024-03-23T04:33:32;97747.97;;;13.55;84.71
13765;BME280;6953;48.810;9.204;2024-03-23T04:35:57;97555.03;;;11.89;87.37
13765;BME280;6953;48.810;9.204;2024-03-23T04:38:22;97812.00;;;12.90;94.00
13765;BME280;6953;48.810;9.204;2024-03-23T04:40:58;97806.97;;;12.64;99.21
13765;BME280;6953;48.810;9.204;2024-03-23T04:43:25;97719.56;;;11.92;100.00
13765;BME280;6953;48.810;9.204;2024-03-23T04:45:50;97777.81;;;12.33;100.00
13765;BME280;6953;48.810;9.204;2024-03-23T04:48:15;97794.63;;;12.19;100.00
13765;BME280;6953;48.810;9.204;2024-03-23T04:50:41;97806.88;;;12.08;100.00
13765;BME280;6953;48.810;9.204;2024-03-23T04:53:07;97712.22;;;11.61;100.00
13765;BME280;6953;48.810;9.204;2024-03-23T04:55:32;97726.81;;;11.65;100.00
13765;BME280;6953;48.810;9.204;2024-03-23T04:57:57;97508.94;;;10.34;100.00
13765;BME280;6953;48.810;9.204;2024-03-23T05:00:22;97503.91;;;10.31;100.00
13765;BME280;6953;48.810;9.204;2024-03-23T05:02:48;97760.75;;;11.91;100.00
13765;BME280;6953;48.810;9.204;2024-03-23T05:05:14;97502.97;;;10.32;100.00
13765;BME280;6953;48.810;9.204;2024-03-23T05:07:39;97806.22;;;12.04;100.00
13765;BME280;6953;48.810;9.204;2024-03-23T05:10:05;97838.72;;;12.03;100.00
13765;BME280;6953;48.810;9.204;2024-03-23T05:12:31;97774.63;;;11.70;100.00
13765;BME280;6953;48.810;9.204;2024-03-23T05:14:57;97806.47;;;12.01;100.00
13765;BME280;6953;48.810;9.204;2024-03-23T05:17:22;97674.19;;;11.18;100.00
13765;BME280;6953;48.810;9.204;2024-03-23T05:19:47;97810.28;;;11.97;100.00
13765;BME280;6953;48.810;9.204;2024-03-23T05:22:13;97559.97;;;10.41;100.00
13765;BME280;6953;48.810;9.204;2024-03-23T05:24:38;97824.38;;;11.96;100.00
13765;BME280;6953;48.810;9.204;2024-03-23T05:27:03;97824.38;;;11.96;100.00
13765;BME280;6953;48.810;9.204;2024-03-23T05:29:28;97733.91;;;11.39;100.00
13765;BME280;6953;48.810;9.204;2024-03-23T05:31:54;97812.75;;;11.75;100.00
13765;BME280;6953;48.810;9.204;2024-03-23T05:34:21;97519.97;;;10.14;100.00
13765;BME280;6953;48.810;9.204;2024-03-23T05:36:46;97829.03;;;11.80;100.00
13765;BME280;6953;48.810;9.204;2024-03-23T05:39:12;97554.25;;;10.11;100.00
13765;BME280;6953;48.810;9.204;2024-03-23T05:41:37;97832.31;;;11.71;100.00
13765;BME280;6953;48.810;9.204;2024-03-23T05:44:02;97830.97;;;11.66;100.00
13765;BME280;6953;48.810;9.204;2024-03-23T05:46:28;97846.09;;;11.62;100.00
13765;BME280;6953;48.810;9.204;2024-03-23T05:48:53;97857.88;;;11.57;100.00
13765;BME280;6953;48.810;9.204;2024-03-23T05:51:19;97839.78;;;11.15;100.00
13765;BME280;6953;48.810;9.204;2024-03-23T05:53:44;97864.16;;;11.42;100.00
13765;BME280;6953;48.810;9.204;2024-03-23T05:56:10;97908.94;;;11.40;100.00
13765;BME280;6953;48.810;9.204;2024-03-23T05:58:35;97595.81;;;9.66;100.00
13765;BME280;6953;48.810;9.204;2024-03-23T06:01:01;97833.59;;;10.91;100.00
13765;BME280;6953;48.810;9.204;2024-03-23T06:03:28;97513.75;;;9.02;100.00
13765;BME280;6953;48.810;9.204;2024-03-23T06:05:54;97863.94;;;11.08;100.00
13765;BME280;6953;48.810;9.204;2024-03-23T06:08:19;97883.34;;;10.93;100.00
13765;BME280;6953;48.810;9.204;2024-03-23T06:10:45;97870.44;;;10.90;100.00
13765;BME280;6953;48.810;9.204;2024-03-23T06:13:11;97917.88;;;10.87;100.00
13765;BME280;6953;48.810;9.204;2024-03-23T06:15:36;97794.97;;;10.17;100.00
13765;BME280;6953;48.810;9.204;2024-03-23T06:18:03;97615.09;;;9.12;100.00
13765;BME280;6953;48.810;9.204;2024-03-23T06:20:29;97936.19;;;10.74;100.00
13765;BME280;6953;48.810;9.204;2024-03-23T06:22:54;97637.06;;;9.10;100.00
13765;BME280;6953;48.810;9.204;2024-03-23T06:25:19;97892.03;;;10.68;100.00
13765;BME280;6953;48.810;9.204;2024-03-23T06:27:44;97812.25;;;10.20;100.00
13765;BME280;6953;48.810;9.204;2024-03-23T06:30:10;97920.66;;;10.71;100.00
13765;BME280;6953;48.810;9.204;2024-03-23T06:32:36;97913.78;;;10.56;100.00
13765;BME280;6953;48.810;9.204;2024-03-23T06:35:01;97930.72;;;10.65;100.00
13765;BME280;6953;48.810;9.204;2024-03-23T06:37:33;97968.09;;;10.68;100.00
13765;BME280;6953;48.810;9.204;2024-03-23T06:39:58;97953.72;;;10.74;100.00
13765;BME280;6953;48.810;9.204;2024-03-23T06:42:23;97970.34;;;10.87;100.00
13765;BME280;6953;48.810;9.204;2024-03-23T06:44:48;97904.03;;;10.58;100.00
13765;BME280;6953;48.810;9.204;2024-03-23T06:47:14;97977.25;;;11.14;99.10
13765;BME280;6953;48.810;9.204;2024-03-23T06:49:39;97982.25;;;11.31;98.09
13765;BME280;6953;48.810;9.204;2024-03-23T06:52:04;98004.03;;;11.58;97.36
13765;BME280;6953;48.810;9.204;2024-03-23T06:54:30;97990.50;;;11.89;95.33
13765;BME280;6953;48.810;9.204;2024-03-23T06:56:55;97993.00;;;12.03;92.59
13765;BME280;6953;48.810;9.204;2024-03-23T06:59:20;98006.97;;;12.16;91.95
13765;BME280;6953;48.810;9.204;2024-03-23T07:01:45;98011.41;;;12.15;90.83
13765;BME280;6953;48.810;9.204;2024-03-23T07:04:11;97945.91;;;11.75;89.74
13765;BME280;6953;48.810;9.204;2024-03-23T07:06:42;98036.94;;;12.38;89.75
13765;BME280;6953;48.810;9.204;2024-03-23T07:09:08;98032.41;;;12.52;88.76
13765;BME280;6953;48.810;9.204;2024-03-23T07:11:33;98021.41;;;12.58;87.77
13765;BME280;6953;48.810;9.204;2024-03-23T07:13:59;97932.34;;;11.93;87.07
13765;BME280;6953;48.810;9.204;2024-03-23T07:16:26;98057.22;;;12.61;86.54
13765;BME280;6953;48.810;9.204;2024-03-23T07:18:52;98034.34;;;12.61;86.90
13765;BME280;6953;48.810;9.204;2024-03-23T07:21:17;97818.25;;;11.35;84.47
13765;BME280;6953;48.810;9.204;2024-03-23T07:23:42;97979.16;;;12.72;84.92
13765;BME280;6953;48.810;9.204;2024-03-23T07:26:11;98044.28;;;14.42;80.25
13765;BME280;6953;48.810;9.204;2024-03-23T07:28:37;98068.72;;;14.99;75.28
13765;BME280;6953;48.810;9.204;2024-03-23T07:31:07;98054.06;;;15.06;74.79
13765;BME280;6953;48.810;9.204;2024-03-23T07:33:35;97810.72;;;13.72;74.59
13765;BME280;6953;48.810;9.204;2024-03-23T07:36:00;98048.47;;;14.77;74.72
13765;BME280;6953;48.810;9.204;2024-03-23T07:38:27;98061.69;;;14.34;76.29
13765;BME280;6953;48.810;9.204;2024-03-23T07:41:05;98100.56;;;13.97;78.39
13765;BME280;6953;48.810;9.204;2024-03-23T07:43:31;98083.69;;;13.42;80.42
13765;BME280;6953;48.810;9.204;2024-03-23T07:45:56;98089.41;;;13.13;81.35
13765;BME280;6953;48.810;9.204;2024-03-23T07:48:22;97811.44;;;11.20;84.05
13765;BME280;6953;48.810;9.204;2024-03-23T07:51:03;98146.69;;;12.24;88.33
13765;BME280;6953;48.810;9.204;2024-03-23T07:53:30;98121.25;;;11.73;89.73
13765;BME280;6953;48.810;9.204;2024-03-23T07:56:07;97836.50;;;9.69;92.09
13765;BME280;6953;48.810;9.204;2024-03-23T07:58:33;98134.50;;;11.05;94.10
13765;BME280;6953;48.810;9.204;2024-03-23T08:01:10;98165.13;;;10.78;95.02
13765;BME280;6953;48.810;9.204;2024-03-23T08:03:40;98086.88;;;10.56;96.40
13765;BME280;6953;48.810;9.204;2024-03-23T08:06:19;98142.53;;;10.89;96.00
13765;BME280;6953;48.810;9.204;2024-03-23T08:08:50;98039.06;;;10.39;96.79
13765;BME280;6953;48.810;9.204;2024-03-23T08:11:18;98144.81;;;11.08;97.69
13765;BME280;6953;48.810;9.204;2024-03-23T08:13:44;98189.28;;;11.37;94.69
13765;BME280;6953;48.810;9.204;2024-03-23T08:16:10;98123.75;;;10.95;95.66
13765;BME280;6953;48.810;9.204;2024-03-23T08:18:35;98187.31;;;11.00;95.84
13765;BME280;6953;48.810;9.204;2024-03-23T08:21:05;98094.84;;;10.41;97.79
13765;BME280;6953;48.810;9.204;2024-03-23T08:23:32;98102.91;;;10.24;99.43
13765;BME280;6953;48.810;9.204;2024-03-23T08:26:06;98193.69;;;10.54;100.00
13765;BME280;6953;48.810;9.204;2024-03-23T08:28:32;98205.28;;;10.50;100.00
13765;BME280;6953;48.810;9.204;2024-03-23T08:31:01;97960.69;;;9.23;100.00
13765;BME280;6953;48.810;9.204;2024-03-23T08:33:27;97933.00;;;9.19;94.66
13765;BME280;6953;48.810;9.204;2024-03-23T08:36:02;98232.78;;;10.59;95.07
13765;BME280;6953;48.810;9.204;2024-03-23T08:38:28;97997.41;;;8.77;93.83
13765;BME280;6953;48.810;9.204;2024-03-23T08:41:01;98046.38;;;8.75;93.22
13765;BME280;6953;48.810;9.204;2024-03-23T08:43:28;98004.53;;;8.44;93.63
13765;BME280;6953;48.810;9.204;2024-03-23T08:46:02;98263.13;;;10.04;93.98
13765;BME280;6953;48.810;9.204;2024-03-23T08:48:28;98282.84;;;10.11;94.02
13765;BME280;6953;48.810;9.204;2024-03-23T08:51:03;98250.19;;;10.31;93.87
13765;BME280;6953;48.810;9.204;2024-03-23T08:53:29;97986.41;;;8.72;93.48
13765;BME280;6953;48.810;9.204;2024-03-23T08:55:56;98260.50;;;9.89;94.66
13765;BME280;6953;48.810;9.204;2024-03-23T08:58:23;97982.19;;;8.23;94.68
13765;BME280;6953;48.810;9.204;2024-03-23T09:00:49;98287.25;;;9.80;97.23
13765;BME280;6953;48.810;9.204;2024-03-23T09:03:14;98264.75;;;9.91;96.99
13765;BME280;6953;48.810;9.204;2024-03-23T09:05:39;98272.75;;;10.19;93.94
13765;BME280;6953;48.810;9.204;2024-03-23T09:08:05;98158.06;;;9.34;94.22
13765;BME280;6953;48.810;9.204;2024-03-23T09:10:31;98236.19;;;9.87;93.07
13765;BME280;6953;48.810;9.204;2024-03-23T09:12:57;98315.66;;;10.03;94.38
13765;BME280;6953;48.810;9.204;2024-03-23T09:15:22;98320.97;;;9.86;95.75
13765;BME280;6953;48.810;9.204;2024-03-23T09:17:47;98128.25;;;8.44;96.30
13765;BME280;6953;48.810;9.204;2024-03-23T09:20:12;98344.78;;;9.81;96.56
13765;BME280;6953;48.810;9.204;2024-03-23T09:26:03;98321.72;;;11.19;84.90
13765;BME280;6953;48.810;9.204;2024-03-23T09:28:28;98336.09;;;11.00;84.38
13765;BME280;6953;48.810;9.204;2024-03-23T09:30:53;98237.91;;;10.74;82.09
13765;BME280;6953;48.810;9.204;2024-03-23T09:33:19;98248.88;;;10.67;82.99
13765;BME280;6953;48.810;9.204;2024-03-23T09:35:44;98351.19;;;11.38;82.28
13765;BME280;6953;48.810;9.204;2024-03-23T09:38:12;98337.13;;;11.67;81.67
13765;BME280;6953;48.810;9.204;2024-03-23T09:40:41;98366.34;;;12.55;78.39
13765;BME280;6953;48.810;9.204;2024-03-23T09:43:09;98281.47;;;13.03;73.06
13765;BME280;6953;48.810;9.204;2024-03-23T09:45:39;98364.34;;;13.72;70.64
13765;BME280;6953;48.810;9.204;2024-03-23T09:48:06;98240.81;;;13.07;71.49
13765;BME280;6953;48.810;9.204;2024-03-23T09:50:33;98350.28;;;13.24;71.66
13765;BME280;6953;48.810;9.204;2024-03-23T09:52:58;98320.03;;;13.04;72.96
13765;BME280;6953;48.810;9.204;2024-03-23T09:55:23;98092.56;;;11.70;74.30
13765;BME280;6953;48.810;9.204;2024-03-23T09:57:50;98320.63;;;12.83;73.26
13765;BME280;6953;48.810;9.204;2024-03-23T10:00:15;98159.25;;;11.81;74.67
13765;BME280;6953;48.810;9.204;2024-03-23T10:02:41;98329.09;;;13.00;75.07
13765;BME280;6953;48.810;9.204;2024-03-23T10:05:22;98334.16;;;13.41;74.88
13765;BME280;6953;48.810;9.204;2024-03-23T10:07:51;98328.50;;;13.70;72.71
13765;BME280;6953;48.810;9.204;2024-03-23T10:10:16;98298.94;;;13.54;72.16
13765;BME280;6953;48.810;9.204;2024-03-23T10:12:49;98081.09;;;12.58;71.06
13765;BME280;6953;48.810;9.204;2024-03-23T10:15:18;98319.53;;;15.57;63.29
13765;BME280;6953;48.810;9.204;2024-03-23T10:17:44;98273.97;;;16.60;57.57
13765;BME280;6953;48.810;9.204;2024-03-23T10:20:10;98332.22;;;19.81;41.80
13765;BME280;6953;48.810;9.204;2024-03-23T10:22:37;98329.78;;;21.45;34.33
13765;BME280;6953;48.810;9.204;2024-03-23T10:25:10;98362.81;;;22.70;31.21
13765;BME280;6953;48.810;9.204;2024-03-23T10:27:36;98332.91;;;21.92;31.02
13765;BME280;6953;48.810;9.204;2024-03-23T10:30:13;98319.66;;;22.15;30.36
13765;BME280;6953;48.810;9.204;2024-03-23T10:32:39;98344.84;;;21.72;30.62
13765;BME280;6953;48.810;9.204;2024-03-23T10:35:18;98145.59;;;19.30;31.43
13765;BME280;6953;48.810;9.204;2024-03-23T10:37:44;98306.69;;;20.59;30.79
13765;BME280;6953;48.810;9.204;2024-03-23T10:40:12;98144.66;;;20.96;29.15
13765;BME280;6953;48.810;9.204;2024-03-23T10:42:38;98296.94;;;20.67;31.39
13765;BME280;6953;48.810;9.204;2024-03-23T10:45:07;98315.06;;;18.82;33.85
13765;BME280;6953;48.810;9.204;2024-03-23T10:47:34;98306.56;;;17.12;37.20
13765;BME280;6953;48.810;9.204;2024-03-23T10:50:00;98220.25;;;15.63;39.59
13765;BME280;6953;48.810;9.204;2024-03-23T10:52:25;98333.78;;;15.21;44.02
13765;BME280;6953;48.810;9.204;2024-03-23T10:54:51;98363.88;;;14.16;53.93
13765;BME280;6953;48.810;9.204;2024-03-23T10:57:22;98395.47;;;12.79;62.93
13765;BME280;6953;48.810;9.204;2024-03-23T10:59:48;98404.59;;;11.80;67.87
13765;BME280;6953;48.810;9.204;2024-03-23T11:02:21;98407.63;;;10.74;75.87
13765;BME280;6953;48.810;9.204;2024-03-23T11:04:47;98391.09;;;9.81;80.69
13765;BME280;6953;48.810;9.204;2024-03-23T11:07:30;98437.59;;;9.77;84.30
13765;BME280;6953;48.810;9.204;2024-03-23T11:09:57;98438.06;;;9.36;88.20
13765;BME280;6953;48.810;9.204;2024-03-23T11:14:59;98284.88;;;8.14;91.32
13765;BME280;6953;48.810;9.204;2024-03-23T11:17:26;98316.72;;;8.55;92.31
13765;BME280;6953;48.810;9.204;2024-03-23T11:22:39;98388.38;;;11.03;84.55
13765;BME280;6953;48.810;9.204;2024-03-23T11:25:20;98174.38;;;9.98;83.28
13765;BME280;6953;48.810;9.204;2024-03-23T11:27:53;98383.06;;;12.42;80.26
13765;BME280;6953;48.810;9.204;2024-03-23T11:30:26;98384.19;;;15.42;65.81
13765;BME280;6953;48.810;9.204;2024-03-23T11:32:53;98367.00;;;17.18;58.67
13765;BME280;6953;48.810;9.204;2024-03-23T11:35:29;98381.03;;;19.72;48.27
13765;BME280;6953;48.810;9.204;2024-03-23T11:38:09;98380.47;;;20.41;40.81
13765;BME280;6953;48.810;9.204;2024-03-23T11:40:36;98378.69;;;20.32;42.06
13765;BME280;6953;48.810;9.204;2024-03-23T11:43:04;98367.19;;;20.76;40.76
13765;BME280;6953;48.810;9.204;2024-03-23T11:45:37;98376.75;;;22.06;36.48
13765;BME280;6953;48.810;9.204;2024-03-23T11:50:28;98352.44;;;21.41;35.42
13765;BME280;6953;48.810;9.204;2024-03-23T11:53:06;98356.81;;;20.01;38.06
13765;BME280;6953;48.810;9.204;2024-03-23T11:55:41;98201.50;;;18.37;40.68
13765;BME280;6953;48.810;9.204;2024-03-23T11:58:07;98349.88;;;18.98;38.59
13765;BME280;6953;48.810;9.204;2024-03-23T12:00:33;98361.09;;;18.15;37.39
13765;BME280;6953;48.810;9.204;2024-03-23T12:03:02;98357.38;;;17.87;39.60
13765;BME280;6953;48.810;9.204;2024-03-23T12:05:28;98297.78;;;17.32;40.96
13765;BME280;6953;48.810;9.204;2024-03-23T12:07:54;98337.94;;;16.96;42.67
13765;BME280;6953;48.810;9.204;2024-03-23T12:10:19;98329.19;;;16.33;45.14
13765;BME280;6953;48.810;9.204;2024-03-23T12:12:45;98325.69;;;15.79;48.39
13765;BME280;6953;48.810;9.204;2024-03-23T12:15:10;98272.81;;;14.90;49.32
13765;BME280;6953;48.810;9.204;2024-03-23T12:17:37;98098.34;;;13.80;50.09
13765;BME280;6953;48.810;9.204;2024-03-23T12:20:04;98318.69;;;15.78;49.30
13765;BME280;6953;48.810;9.204;2024-03-23T12:22:29;98302.94;;;15.55;47.07
13765;BME280;6953;48.810;9.204;2024-03-23T12:24:55;98344.88;;;15.26;45.14
13765;BME280;6953;48.810;9.204;2024-03-23T12:27:22;98251.81;;;14.99;43.30
13765;BME280;6953;48.810;9.204;2024-03-23T12:29:47;98343.34;;;16.74;39.67
13765;BME280;6953;48.810;9.204;2024-03-23T12:32:13;98116.66;;;16.51;38.53
13765;BME280;6953;48.810;9.204;2024-03-23T12:34:39;98146.19;;;19.51;31.57
13765;BME280;6953;48.810;9.204;2024-03-23T12:37:04;98366.03;;;23.69;27.05
13765;BME280;6953;48.810;9.204;2024-03-23T12:39:31;98369.81;;;24.91;23.98
13765;BME280;6953;48.810;9.204;2024-03-23T12:41:56;98336.44;;;22.91;25.88
13765;BME280;6953;48.810;9.204;2024-03-23T12:44:21;98346.72;;;20.94;28.14
13765;BME280;6953;48.810;9.204;2024-03-23T12:46:47;98353.09;;;19.11;31.47
13765;BME280;6953;48.810;9.204;2024-03-23T12:49:12;98346.25;;;18.03;33.26
13765;BME280;6953;48.810;9.204;2024-03-23T12:51:38;98306.81;;;16.68;35.76
13765;BME280;6953;48.810;9.204;2024-03-23T12:54:03;98334.00;;;16.28;38.21
13765;BME280;6953;48.810;9.204;2024-03-23T12:56:29;98110.59;;;14.27;39.76
13765;BME280;6953;48.810;9.204;2024-03-23T12:58:54;98325.44;;;15.49;40.60
13765;BME280;6953;48.810;9.204;2024-03-23T13:01:22;98342.09;;;16.89;38.66
13765;BME280;6953;48.810;9.204;2024-03-23T13:03:49;98347.34;;;20.88;31.56
13765;BME280;6953;48.810;9.204;2024-03-23T13:06:15;98358.38;;;23.42;27.40
13765;BME280;6953;48.810;9.204;2024-03-23T13:08:40;98133.72;;;22.77;26.15
13765;BME280;6953;48.810;9.204;2024-03-23T13:11:06;98361.38;;;25.61;24.30
13765;BME280;6953;48.810;9.204;2024-03-23T13:13:34;98343.47;;;25.17;23.82
13765;BME280;6953;48.810;9.204;2024-03-23T13:15:59;98163.00;;;23.87;23.56
13765;BME280;6953;48.810;9.204;2024-03-23T13:18:24;98346.16;;;23.47;25.07
13765;BME280;6953;48.810;9.204;2024-03-23T13:20:50;98327.66;;;21.31;28.32
13765;BME280;6953;48.810;9.204;2024-03-23T13:23:15;98314.50;;;21.30;28.64
13765;BME280;6953;48.810;9.204;2024-03-23T13:25:40;98070.31;;;19.64;28.46
13765;BME280;6953;48.810;9.204;2024-03-23T13:28:05;98260.53;;;21.18;27.98
13765;BME280;6953;48.810;9.204;2024-03-23T13:30:31;98325.56;;;20.30;28.56
13765;BME280;6953;48.810;9.204;2024-03-23T13:32:56;98222.34;;;18.41;30.75
13765;BME280;6953;48.810;9.204;2024-03-23T13:35:21;98289.19;;;18.65;30.46
13765;BME280;6953;48.810;9.204;2024-03-23T13:37:47;98288.97;;;19.33;29.68
13765;BME280;6953;48.810;9.204;2024-03-23T13:40:13;98245.88;;;19.83;29.05
13765;BME280;6953;48.810;9.204;2024-03-23T13:42:39;98045.53;;;18.01;29.15
13765;BME280;6953;48.810;9.204;2024-03-23T13:45:04;98234.47;;;19.46;28.95
13765;BME280;6953;48.810;9.204;2024-03-23T13:47:30;98262.28;;;19.52;28.97
13765;BME280;6953;48.810;9.204;2024-03-23T13:49:55;98265.97;;;18.77;30.09
13765;BME280;6953;48.810;9.204;2024-03-23T13:52:21;98274.47;;;17.74;31.70
13765;BME280;6953;48.810;9.204;2024-03-23T13:54:48;98248.56;;;16.98;32.88
13765;BME280;6953;48.810;9.204;2024-03-23T13:57:14;98247.63;;;16.78;33.13
13765;BME280;6953;48.810;9.204;2024-03-23T13:59:39;98215.16;;;16.66;33.11
13765;BME280;6953;48.810;9.204;2024-03-23T14:02:04;98293.81;;;16.85;33.26
13765;BME280;6953;48.810;9.204;2024-03-23T14:04:29;98072.81;;;14.70;40.51
13765;BME280;6953;48.810;9.204;2024-03-23T14:06:55;98319.34;;;14.35;51.12
13765;BME280;6953;48.810;9.204;2024-03-23T14:09:20;98320.72;;;12.81;61.11
13765;BME280;6953;48.810;9.204;2024-03-23T14:11:51;98287.63;;;11.05;71.19